createdAt,value
2019-05-09T00:00:23.341Z,99.90
2019-05-09T00:02:54.004Z,99.90
2019-05-09T00:05:25.270Z,99.90
2019-05-09T00:07:53.274Z,99.90
2019-05-09T00:10:38.097Z,99.90
2019-05-09T00:12:54.064Z,99.90
2019-05-09T00:15:24.224Z,99.90
2019-05-09T00:17:53.367Z,99.90
2019-05-09T00:20:29.560Z,99.90
2019-05-09T00:22:58.310Z,99.90
2019-05-09T00:25:27.030Z,99.90
2019-05-09T00:27:55.774Z,99.90
2019-05-09T00:30:43.673Z,99.90
2019-05-09T00:33:14.298Z,99.90
2019-05-09T00:35:44.453Z,99.90
2019-05-09T00:38:13.399Z,99.90
2019-05-09T00:40:55.019Z,99.90
2019-05-09T00:43:13.200Z,99.90
2019-05-09T00:45:46.344Z,99.90
2019-05-09T00:48:16.757Z,99.90
2019-05-09T00:50:45.541Z,99.90
2019-05-09T00:53:14.293Z,99.90
2019-05-09T00:55:43.634Z,99.90
2019-05-09T00:58:13.599Z,99.90
2019-05-09T01:00:43.936Z,99.90
2019-05-09T01:03:14.174Z,99.90
2019-05-09T01:05:43.621Z,99.90
2019-05-09T01:08:14.380Z,99.90
2019-05-09T01:10:43.739Z,99.90
2019-05-09T01:13:14.196Z,99.90
2019-05-09T01:15:44.042Z,99.90
2019-05-09T01:18:13.313Z,99.90
2019-05-09T01:20:44.043Z,99.90
2019-05-09T01:23:14.199Z,99.90
2019-05-09T01:25:45.129Z,99.90
2019-05-09T01:28:14.058Z,99.90
2019-05-09T01:30:43.861Z,99.90
2019-05-09T01:33:17.626Z,99.90
2019-05-09T01:35:46.358Z,99.90
2019-05-09T01:38:15.103Z,99.90
2019-05-09T01:40:44.009Z,99.90
2019-05-09T01:43:15.072Z,99.90
2019-05-09T01:45:47.000Z,99.90
2019-05-09T01:48:14.209Z,99.90
2019-05-09T01:50:43.239Z,99.90
2019-05-09T01:53:13.761Z,99.90
2019-05-09T01:55:57.905Z,99.90
2019-05-09T01:58:34.256Z,99.90
2019-05-09T02:01:04.629Z,99.90
2019-05-09T02:03:33.715Z,99.90
2019-05-09T02:06:03.530Z,99.90
2019-05-09T02:08:34.470Z,99.90
2019-05-09T02:11:03.777Z,99.90
2019-05-09T02:13:33.909Z,99.90
2019-05-09T02:16:10.549Z,99.90
2019-05-09T02:18:56.263Z,99.90
2019-05-09T02:21:25.032Z,99.90
2019-05-09T02:23:53.823Z,99.90
2019-05-09T02:26:24.026Z,99.90
2019-05-09T02:28:54.161Z,99.90
2019-05-09T02:31:24.406Z,99.90
2019-05-09T02:33:54.217Z,99.90
2019-05-09T02:36:23.282Z,99.90
2019-05-09T02:38:52.338Z,99.90
2019-05-09T02:41:21.127Z,99.90
2019-05-09T02:43:50.055Z,99.90
2019-05-09T02:46:29.115Z,99.90
2019-05-09T02:48:59.386Z,99.90
2019-05-09T02:51:29.248Z,99.90
2019-05-09T02:53:58.604Z,99.90
2019-05-09T02:56:29.400Z,99.90
2019-05-09T02:59:05.716Z,99.90
2019-05-09T03:01:38.949Z,99.90
2019-05-09T03:04:08.459Z,99.90
2019-05-09T03:06:38.898Z,99.90
2019-05-09T03:09:08.883Z,99.90
2019-05-09T03:11:38.970Z,99.90
2019-05-09T03:14:09.052Z,99.90
2019-05-09T03:16:39.852Z,99.90
2019-05-09T03:19:09.278Z,99.90
2019-05-09T03:21:39.920Z,99.90
2019-05-09T03:24:09.749Z,99.90
2019-05-09T03:26:40.653Z,99.90
2019-05-09T03:29:29.169Z,99.90
2019-05-09T03:32:00.111Z,99.90
2019-05-09T03:34:30.069Z,99.90
2019-05-09T03:36:59.188Z,99.90
2019-05-09T03:39:27.905Z,99.90
2019-05-09T03:41:57.417Z,99.90
2019-05-09T03:44:28.230Z,99.90
2019-05-09T03:47:10.662Z,99.90
2019-05-09T03:49:39.517Z,99.90
2019-05-09T03:52:08.254Z,99.90
2019-05-09T03:54:38.037Z,99.90
2019-05-09T03:57:11.370Z,99.90
2019-05-09T03:59:40.196Z,99.90
2019-05-09T04:02:10.235Z,99.90
2019-05-09T04:04:39.332Z,99.90
2019-05-09T04:07:08.533Z,99.90
2019-05-09T04:09:37.467Z,99.90
2019-05-09T04:12:07.738Z,99.90
2019-05-09T04:14:37.848Z,99.90
2019-05-09T04:17:07.838Z,99.90
2019-05-09T04:19:38.024Z,99.90
2019-05-09T04:22:08.008Z,99.90
2019-05-09T04:24:38.209Z,99.90
2019-05-09T04:27:08.747Z,99.90
2019-05-09T04:29:37.545Z,99.90
2019-05-09T04:32:07.989Z,99.90
2019-05-09T04:34:38.034Z,99.90
2019-05-09T04:37:08.074Z,99.90
2019-05-09T04:39:38.700Z,99.90
2019-05-09T04:42:08.531Z,99.90
2019-05-09T04:44:38.914Z,99.90
2019-05-09T04:47:11.053Z,99.90
2019-05-09T04:49:44.818Z,99.90
2019-05-09T04:52:10.332Z,99.90
2019-05-09T04:54:39.096Z,99.90
2019-05-09T04:57:08.053Z,99.90
2019-05-09T04:59:37.455Z,99.90
2019-05-09T05:02:24.189Z,99.90
2019-05-09T05:04:52.981Z,99.90
2019-05-09T05:07:21.719Z,99.90
2019-05-09T05:09:50.474Z,99.90
2019-05-09T05:12:19.259Z,99.90
2019-05-09T05:14:48.101Z,99.90
2019-05-09T05:17:17.932Z,99.90
2019-05-09T05:19:47.734Z,99.90
2019-05-09T05:22:18.435Z,99.90
2019-05-09T05:24:49.042Z,99.90
2019-05-09T05:27:18.796Z,99.90
2019-05-09T05:29:47.933Z,99.90
2019-05-09T05:32:21.092Z,99.90
2019-05-09T05:34:51.496Z,99.90
2019-05-09T05:37:20.234Z,99.90
2019-05-09T05:39:49.050Z,99.90
2019-05-09T05:42:22.134Z,99.90
2019-05-09T05:44:49.768Z,99.90
2019-05-09T05:47:26.371Z,99.90
2019-05-09T05:49:53.514Z,99.90
2019-05-09T05:52:22.293Z,99.90
2019-05-09T05:54:51.046Z,99.90
2019-05-09T05:57:19.862Z,99.90
2019-05-09T05:59:48.617Z,99.90
2019-05-09T06:02:17.838Z,99.90
2019-05-09T06:04:48.608Z,99.90
2019-05-09T06:07:18.483Z,99.90
2019-05-09T06:09:48.203Z,99.90
2019-05-09T06:12:18.523Z,99.90
2019-05-09T06:14:48.048Z,99.90
2019-05-09T06:17:18.053Z,99.90
2019-05-09T06:19:48.248Z,99.90
2019-05-09T06:22:18.312Z,99.90
2019-05-09T06:24:47.870Z,99.90
2019-05-09T06:27:18.259Z,99.90
2019-05-09T06:29:47.678Z,99.90
2019-05-09T06:32:18.848Z,99.90
2019-05-09T06:34:47.773Z,99.90
2019-05-09T06:37:18.363Z,99.90
2019-05-09T06:39:48.614Z,99.90
2019-05-09T06:42:18.306Z,99.90
2019-05-09T06:45:00.831Z,99.90
2019-05-09T06:47:31.209Z,99.90
2019-05-09T06:50:01.590Z,99.90
2019-05-09T06:52:30.396Z,99.90
2019-05-09T06:54:59.294Z,99.90
2019-05-09T06:57:28.320Z,99.90
2019-05-09T06:59:57.853Z,99.90
2019-05-09T07:02:40.904Z,99.90
2019-05-09T07:05:26.573Z,99.90
2019-05-09T07:07:57.522Z,99.90
2019-05-09T07:10:28.436Z,99.90
2019-05-09T07:12:58.500Z,99.90
2019-05-09T07:15:28.300Z,99.90
2019-05-09T07:17:57.613Z,99.90
2019-05-09T07:20:28.349Z,99.90
2019-05-09T07:22:58.311Z,99.70
2019-05-09T07:25:35.156Z,99.40
2019-05-09T07:28:03.961Z,99.00
2019-05-09T07:30:50.826Z,98.50
2019-05-09T07:33:21.186Z,98.70
2019-05-09T07:35:51.520Z,98.70
2019-05-09T07:38:30.777Z,98.10
2019-05-09T07:41:00.620Z,99.40
2019-05-09T07:43:29.682Z,97.90
2019-05-09T07:46:08.511Z,97.50
2019-05-09T07:48:38.280Z,97.60
2019-05-09T07:51:07.778Z,96.80
2019-05-09T07:53:38.095Z,96.00
2019-05-09T07:56:07.894Z,96.00
2019-05-09T07:58:37.730Z,96.20
2019-05-09T08:01:08.469Z,96.40
2019-05-09T08:03:38.501Z,96.60
2019-05-09T08:06:08.797Z,96.50
2019-05-09T08:08:38.629Z,96.60
2019-05-09T08:11:08.844Z,96.80
2019-05-09T08:13:39.231Z,96.90
2019-05-09T08:16:14.151Z,97.30
2019-05-09T08:18:38.938Z,98.10
2019-05-09T08:21:08.448Z,98.30
2019-05-09T08:23:38.117Z,98.10
2019-05-09T08:26:08.724Z,98.00
2019-05-09T08:28:38.971Z,97.80
2019-05-09T08:31:28.064Z,97.20
2019-05-09T08:33:59.408Z,97.20
2019-05-09T08:36:28.312Z,96.50
2019-05-09T08:38:58.710Z,96.00
2019-05-09T08:41:29.086Z,96.10
2019-05-09T08:43:58.235Z,96.40
2019-05-09T08:46:28.663Z,96.70
2019-05-09T08:48:57.829Z,96.70
2019-05-09T08:51:37.191Z,96.10
2019-05-09T08:53:59.019Z,95.80
2019-05-09T08:56:28.348Z,95.40
2019-05-09T08:59:01.551Z,95.80
2019-05-09T09:01:43.764Z,96.70
2019-05-09T09:03:59.582Z,96.40
2019-05-09T09:06:28.419Z,96.20
2019-05-09T09:08:57.632Z,96.20
2019-05-09T09:11:28.039Z,96.40
2019-05-09T09:13:57.654Z,94.80
2019-05-09T09:16:28.324Z,94.20
2019-05-09T09:18:58.358Z,94.70
2019-05-09T09:21:28.615Z,94.00
2019-05-09T09:23:58.263Z,94.10
2019-05-09T09:26:27.879Z,94.50
2019-05-09T09:28:57.789Z,94.40
2019-05-09T09:31:28.523Z,94.20
2019-05-09T09:33:58.579Z,94.30
2019-05-09T09:36:28.178Z,94.90
2019-05-09T09:38:58.629Z,94.00
2019-05-09T09:41:28.711Z,94.10
2019-05-09T09:43:58.363Z,94.00
2019-05-09T09:46:28.585Z,94.30
2019-05-09T09:48:58.609Z,94.30
2019-05-09T09:51:27.745Z,93.90
2019-05-09T09:53:58.270Z,93.90
2019-05-09T09:56:28.206Z,93.70
2019-05-09T09:58:58.873Z,93.20
2019-05-09T10:01:29.248Z,92.90
2019-05-09T10:04:19.548Z,93.20
2019-05-09T10:06:39.046Z,93.20
2019-05-09T10:09:09.519Z,93.60
2019-05-09T10:11:38.315Z,93.20
2019-05-09T10:14:08.382Z,93.60
2019-05-09T10:16:47.630Z,93.30
2019-05-09T10:19:22.808Z,93.10
2019-05-09T10:21:53.216Z,92.70
2019-05-09T10:24:22.039Z,92.90
2019-05-09T10:27:08.784Z,92.40
2019-05-09T10:29:38.766Z,92.20
2019-05-09T10:32:09.324Z,92.60
2019-05-09T10:34:38.366Z,92.60
2019-05-09T10:37:07.758Z,92.40
2019-05-09T10:39:38.077Z,92.50
2019-05-09T10:42:14.727Z,92.20
2019-05-09T10:44:51.209Z,92.30
2019-05-09T10:47:27.258Z,92.10
2019-05-09T10:49:55.203Z,91.90
2019-05-09T10:52:24.736Z,91.80
2019-05-09T10:54:53.490Z,92.10
2019-05-09T10:57:22.252Z,91.80
2019-05-09T10:59:51.094Z,91.80
2019-05-09T11:02:19.850Z,91.90
2019-05-09T11:04:49.143Z,92.00
2019-05-09T11:07:18.349Z,91.40
2019-05-09T11:09:48.071Z,91.10
2019-05-09T11:12:18.052Z,90.70
2019-05-09T11:14:48.444Z,90.90
2019-05-09T11:17:21.414Z,90.30
2019-05-09T11:19:48.374Z,90.60
2019-05-09T11:22:18.267Z,90.90
2019-05-09T11:24:50.948Z,89.30
2019-05-09T11:27:18.664Z,89.50
2019-05-09T11:29:49.895Z,89.10
2019-05-09T11:32:18.025Z,85.50
2019-05-09T11:34:48.608Z,89.70
2019-05-09T11:37:17.137Z,90.20
2019-05-09T11:39:48.044Z,88.60
2019-05-09T11:42:17.830Z,89.20
2019-05-09T11:44:46.701Z,90.20
2019-05-09T11:47:28.551Z,87.10
2019-05-09T11:49:48.071Z,84.00
2019-05-09T11:52:18.345Z,83.80
2019-05-09T11:54:48.196Z,84.60
2019-05-09T11:57:19.147Z,85.70
2019-05-09T11:59:48.071Z,83.50
2019-05-09T12:02:18.063Z,82.80
2019-05-09T12:04:48.694Z,87.50
2019-05-09T12:07:18.048Z,87.10
2019-05-09T12:09:48.917Z,89.00
2019-05-09T12:12:19.526Z,89.40
2019-05-09T12:14:48.539Z,90.60
2019-05-09T12:17:19.604Z,90.70
2019-05-09T12:19:48.903Z,90.60
2019-05-09T12:22:19.060Z,91.30
2019-05-09T12:24:48.435Z,91.10
2019-05-09T12:27:18.782Z,91.50
2019-05-09T12:29:48.333Z,91.80
2019-05-09T12:32:18.628Z,91.70
2019-05-09T12:34:48.048Z,91.40
2019-05-09T12:37:18.221Z,90.90
2019-05-09T12:39:48.040Z,91.50
2019-05-09T12:42:18.555Z,91.30
2019-05-09T12:44:49.536Z,91.20
2019-05-09T12:47:19.047Z,91.60
2019-05-09T12:49:48.811Z,91.30
2019-05-09T12:52:18.591Z,89.90
2019-05-09T12:54:48.301Z,90.60
2019-05-09T12:57:19.190Z,91.40
2019-05-09T12:59:52.514Z,91.90
2019-05-09T13:02:18.092Z,91.90
2019-05-09T13:04:47.635Z,92.10
2019-05-09T13:07:16.549Z,92.10
2019-05-09T13:09:52.171Z,91.90
2019-05-09T13:12:18.088Z,91.20
2019-05-09T13:14:48.436Z,91.50
2019-05-09T13:17:27.599Z,92.30
2019-05-09T13:19:58.426Z,91.80
2019-05-09T13:22:28.425Z,91.90
2019-05-09T13:24:58.802Z,91.50
2019-05-09T13:27:28.601Z,91.60
2019-05-09T13:29:57.439Z,91.40
2019-05-09T13:32:27.985Z,91.40
2019-05-09T13:34:57.830Z,91.70
2019-05-09T13:37:29.506Z,91.10
2019-05-09T13:39:57.342Z,92.10
2019-05-09T13:42:28.441Z,92.60
2019-05-09T13:44:56.472Z,92.70
2019-05-09T13:47:27.844Z,91.80
2019-05-09T13:49:56.203Z,91.20
2019-05-09T13:52:27.445Z,91.20
2019-05-09T13:54:58.463Z,91.90
2019-05-09T13:57:27.775Z,92.40
2019-05-09T13:59:58.512Z,92.20
2019-05-09T14:02:29.120Z,92.40
2019-05-09T14:04:58.478Z,91.70
2019-05-09T14:07:27.977Z,91.60
2019-05-09T14:09:56.939Z,91.10
2019-05-09T14:12:25.664Z,91.80
2019-05-09T14:14:54.382Z,92.20
2019-05-09T14:17:41.886Z,91.00
2019-05-09T14:19:53.705Z,91.00
2019-05-09T14:22:22.676Z,91.70
2019-05-09T14:24:51.443Z,92.10
2019-05-09T14:27:20.252Z,93.00
2019-05-09T14:29:49.674Z,93.40
2019-05-09T14:32:18.720Z,92.70
2019-05-09T14:34:48.251Z,92.40
2019-05-09T14:37:18.262Z,91.50
2019-05-09T14:39:55.719Z,92.30
2019-05-09T14:42:18.812Z,92.30
2019-05-09T14:44:47.865Z,92.80
2019-05-09T14:47:17.660Z,92.30
2019-05-09T14:49:49.757Z,93.00
2019-05-09T14:52:17.034Z,92.80
2019-05-09T14:54:48.229Z,91.80
2019-05-09T14:57:17.532Z,92.00
2019-05-09T14:59:46.552Z,91.30
2019-05-09T15:02:17.752Z,91.90
2019-05-09T15:04:45.852Z,91.90
2019-05-09T15:07:18.643Z,91.70
2019-05-09T15:09:46.622Z,91.70
2019-05-09T15:12:15.443Z,91.80
2019-05-09T15:14:44.169Z,92.00
2019-05-09T15:17:13.021Z,92.40
2019-05-09T15:19:56.406Z,92.10
2019-05-09T15:22:12.324Z,92.10
2019-05-09T15:24:41.057Z,92.20
2019-05-09T15:27:09.810Z,92.00
2019-05-09T15:29:39.113Z,91.10
2019-05-09T15:32:12.035Z,91.30
2019-05-09T15:34:38.394Z,91.50
2019-05-09T15:37:08.837Z,91.30
2019-05-09T15:39:38.147Z,91.20
2019-05-09T15:42:07.481Z,90.80
2019-05-09T15:44:36.329Z,90.70
2019-05-09T15:47:09.822Z,90.50
2019-05-09T15:49:38.628Z,91.30
2019-05-09T15:52:07.492Z,90.80
2019-05-09T15:54:38.666Z,90.70
2019-05-09T15:57:08.647Z,90.60
2019-05-09T15:59:38.963Z,91.20
2019-05-09T16:02:09.169Z,91.40
2019-05-09T16:04:40.043Z,91.30
2019-05-09T16:07:08.815Z,91.30
2019-05-09T16:09:38.071Z,91.40
2019-05-09T16:12:07.810Z,91.60
2019-05-09T16:14:38.072Z,91.90
2019-05-09T16:17:07.837Z,91.10
2019-05-09T16:19:37.831Z,90.80
2019-05-09T16:22:08.003Z,91.50
2019-05-09T16:24:38.373Z,91.00
2019-05-09T16:27:08.501Z,91.10
2019-05-09T16:29:38.317Z,91.10
2019-05-09T16:32:08.797Z,90.90
2019-05-09T16:34:38.705Z,90.50
2019-05-09T16:37:09.079Z,90.00
2019-05-09T16:39:38.036Z,90.30
2019-05-09T16:42:06.801Z,90.30
2019-05-09T16:44:37.562Z,90.50
2019-05-09T16:47:08.360Z,90.60
2019-05-09T16:49:38.654Z,90.80
2019-05-09T16:52:07.528Z,90.70
2019-05-09T16:54:38.774Z,90.70
2019-05-09T16:57:08.293Z,90.00
2019-05-09T16:59:38.782Z,90.00
2019-05-09T17:02:18.971Z,90.20
2019-05-09T17:04:38.766Z,89.80
2019-05-09T17:07:08.408Z,87.80
2019-05-09T17:09:40.360Z,88.50
2019-05-09T17:12:09.222Z,88.50
2019-05-09T17:14:38.057Z,89.10
2019-05-09T17:17:08.459Z,88.80
2019-05-09T17:19:37.806Z,88.80
2019-05-09T17:22:10.988Z,88.80
2019-05-09T17:24:40.300Z,88.50
2019-05-09T17:27:09.064Z,87.80
2019-05-09T17:29:38.301Z,88.10
2019-05-09T17:32:07.844Z,88.60
2019-05-09T17:34:38.078Z,88.30
2019-05-09T17:37:08.029Z,88.10
2019-05-09T17:39:38.699Z,87.50
2019-05-09T17:42:07.737Z,87.60
2019-05-09T17:44:36.516Z,88.40
2019-05-09T17:47:05.537Z,87.30
2019-05-09T17:49:34.376Z,87.30
2019-05-09T17:52:03.177Z,87.50
2019-05-09T17:54:32.522Z,87.70
2019-05-09T17:57:01.454Z,88.10
2019-05-09T17:59:30.909Z,87.50
2019-05-09T18:01:59.790Z,87.20
2019-05-09T18:04:28.951Z,88.20
2019-05-09T18:06:58.589Z,88.80
2019-05-09T18:09:28.492Z,89.60
2019-05-09T18:11:57.950Z,89.90
2019-05-09T18:14:27.708Z,90.10
2019-05-09T18:16:58.212Z,90.30
2019-05-09T18:19:29.363Z,90.60
2019-05-09T18:21:58.014Z,90.50
2019-05-09T18:24:28.669Z,90.60
2019-05-09T18:26:58.246Z,90.70
2019-05-09T18:29:27.880Z,91.10
2019-05-09T18:32:01.010Z,91.20
2019-05-09T18:34:29.820Z,91.50
2019-05-09T18:36:58.865Z,91.60
2019-05-09T18:39:27.859Z,91.90
2019-05-09T18:41:57.780Z,92.50
2019-05-09T18:44:27.537Z,92.30
2019-05-09T18:46:57.702Z,92.40
2019-05-09T18:49:26.704Z,92.70
2019-05-09T18:52:03.140Z,93.00
2019-05-09T18:54:25.850Z,93.20
2019-05-09T18:56:54.661Z,93.40
2019-05-09T18:59:23.408Z,93.50
2019-05-09T19:01:52.177Z,93.60
2019-05-09T19:04:20.920Z,93.60
2019-05-09T19:06:49.683Z,93.60
2019-05-09T19:09:18.513Z,93.80
2019-05-09T19:11:47.399Z,94.10
2019-05-09T19:14:19.078Z,94.30
2019-05-09T19:16:50.170Z,94.20
2019-05-09T19:19:29.430Z,94.30
2019-05-09T19:22:04.651Z,94.50
2019-05-09T19:24:30.280Z,94.30
2019-05-09T19:26:59.116Z,94.70
2019-05-09T19:29:27.860Z,94.60
2019-05-09T19:31:56.714Z,95.00
2019-05-09T19:34:25.524Z,95.10
2019-05-09T19:36:55.509Z,95.30
2019-05-09T19:39:24.305Z,95.50
2019-05-09T19:41:53.060Z,95.60
2019-05-09T19:44:21.890Z,95.80
2019-05-09T19:46:50.669Z,96.10
2019-05-09T19:49:19.460Z,96.40
2019-05-09T19:51:48.322Z,96.50
2019-05-09T19:54:17.075Z,96.70
2019-05-09T19:56:45.795Z,96.80
2019-05-09T19:59:15.182Z,96.90
2019-05-09T20:01:44.031Z,97.10
2019-05-09T20:04:12.857Z,97.10
2019-05-09T20:06:41.580Z,97.10
2019-05-09T20:09:11.939Z,97.20
2019-05-09T20:11:48.434Z,97.20
2019-05-09T20:14:19.462Z,97.20
2019-05-09T20:16:51.687Z,97.20
2019-05-09T20:19:20.399Z,97.40
2019-05-09T20:21:49.218Z,97.30
2019-05-09T20:24:17.910Z,97.50
2019-05-09T20:26:46.726Z,97.60
2019-05-09T20:29:15.442Z,97.50
2019-05-09T20:31:44.244Z,97.60
2019-05-09T20:34:13.029Z,97.80
2019-05-09T20:36:41.755Z,97.90
2019-05-09T20:39:10.757Z,98.10
2019-05-09T20:41:39.714Z,98.10
2019-05-09T20:44:08.683Z,98.30
2019-05-09T20:46:37.700Z,98.30
2019-05-09T20:49:06.676Z,98.80
2019-05-09T20:51:35.581Z,98.50
2019-05-09T20:54:19.749Z,98.60
2019-05-09T20:56:35.292Z,98.70
2019-05-09T20:59:04.275Z,98.80
2019-05-09T21:01:33.281Z,99.00
2019-05-09T21:04:02.206Z,99.10
2019-05-09T21:06:31.186Z,99.30
2019-05-09T21:09:00.123Z,99.30
2019-05-09T21:11:29.117Z,99.50
2019-05-09T21:13:58.111Z,99.50
2019-05-09T21:16:27.124Z,99.70
2019-05-09T21:18:56.041Z,99.90
2019-05-09T21:21:25.053Z,99.90
2019-05-09T21:23:53.998Z,99.90
2019-05-09T21:26:23.818Z,99.90
2019-05-09T21:28:52.733Z,99.90
2019-05-09T21:31:21.656Z,99.90
2019-05-09T21:33:50.679Z,99.90
2019-05-09T21:36:19.511Z,99.90
2019-05-09T21:38:48.305Z,99.90
2019-05-09T21:41:18.100Z,99.90
2019-05-09T21:43:46.831Z,99.90
2019-05-09T21:46:15.664Z,99.90
2019-05-09T21:48:44.461Z,99.90
2019-05-09T21:51:13.191Z,99.90
2019-05-09T21:53:42.033Z,99.90
2019-05-09T21:56:10.832Z,99.90
2019-05-09T21:58:39.644Z,99.90
2019-05-09T22:01:11.406Z,99.90
2019-05-09T22:03:40.216Z,99.90
2019-05-09T22:06:09.054Z,99.90
2019-05-09T22:08:37.953Z,99.90
2019-05-09T22:11:06.745Z,99.90
2019-05-09T22:13:35.594Z,99.90
2019-05-09T22:16:04.388Z,99.90
2019-05-09T22:18:33.120Z,99.90
2019-05-09T22:21:01.953Z,99.90
2019-05-09T22:23:30.697Z,99.90
2019-05-09T22:25:59.574Z,99.90
2019-05-09T22:28:28.327Z,99.90
2019-05-09T22:30:57.137Z,99.90
2019-05-09T22:33:25.903Z,99.90
2019-05-09T22:35:54.678Z,99.90
2019-05-09T22:38:23.374Z,99.90
2019-05-09T22:40:52.214Z,99.90
2019-05-09T22:43:20.936Z,99.90
2019-05-09T22:45:49.743Z,99.90
2019-05-09T22:48:18.524Z,99.90
2019-05-09T22:50:47.242Z,99.90
2019-05-09T22:53:16.051Z,99.90
2019-05-09T22:55:45.114Z,99.90
2019-05-09T22:58:13.858Z,99.90
2019-05-09T23:00:42.660Z,99.90
2019-05-09T23:03:14.268Z,99.90
2019-05-09T23:05:43.061Z,99.90
2019-05-09T23:08:11.811Z,99.90
2019-05-09T23:10:40.649Z,99.90
2019-05-09T23:13:09.461Z,99.90
2019-05-09T23:15:38.286Z,99.90
2019-05-09T23:18:07.197Z,99.90
2019-05-09T23:20:40.565Z,99.90
2019-05-09T23:23:23.042Z,99.90
2019-05-09T23:25:51.750Z,99.90
2019-05-09T23:28:22.115Z,99.90
2019-05-09T23:30:52.484Z,99.90
2019-05-09T23:33:21.889Z,99.90
2019-05-09T23:35:50.690Z,99.90
2019-05-09T23:38:19.515Z,99.90
2019-05-09T23:40:48.321Z,99.90
2019-05-09T23:43:17.063Z,99.90
2019-05-09T23:45:45.895Z,99.90
2019-05-09T23:48:14.653Z,99.90
2019-05-09T23:50:43.421Z,99.90
2019-05-09T23:53:12.187Z,99.90
2019-05-09T23:55:58.814Z,99.90
2019-05-09T23:58:45.786Z,99.90
